sensor_id;sensor_type;location;lat;lon;timestamp;temperature;humidity
15765;DHT22;7983;50.744;7.086;2023-03-01T00:01:08;1.40;99.90
15765;DHT22;7983;50.744;7.086;2023-03-01T00:03:37;1.30;99.90
15765;DHT22;7983;50.744;7.086;2023-03-01T00:06:04;1.30;99.90
15765;DHT22;7983;50.744;7.086;2023-03-01T00:08:30;1.30;99.90
15765;DHT22;7983;50.744;7.086;2023-03-01T00:11:14;1.30;99.90
15765;DHT22;7983;50.744;7.086;2023-03-01T00:13:40;1.30;99.90
15765;DHT22;7983;50.744;7.086;2023-03-01T00:16:09;1.30;99.90
15765;DHT22;7983;50.744;7.086;2023-03-01T00:18:35;1.20;99.90
15765;DHT22;7983;50.744;7.086;2023-03-01T00:21:04;1.20;99.90
15765;DHT22;7983;50.744;7.086;2023-03-01T00:23:34;1.20;99.90
15765;DHT22;7983;50.744;7.086;2023-03-01T00:25:59;1.20;99.90
15765;DHT22;7983;50.744;7.086;2023-03-01T00:28:25;1.20;99.90
15765;DHT22;7983;50.744;7.086;2023-03-01T00:30:51;1.20;99.90
15765;DHT22;7983;50.744;7.086;2023-03-01T00:33:16;1.10;99.90
15765;DHT22;7983;50.744;7.086;2023-03-01T00:35:42;1.10;99.90
15765;DHT22;7983;50.744;7.086;2023-03-01T00:38:08;1.00;99.90
15765;DHT22;7983;50.744;7.086;2023-03-01T00:40:37;1.00;99.90
15765;DHT22;7983;50.744;7.086;2023-03-01T00:43:03;1.00;99.90
15765;DHT22;7983;50.744;7.086;2023-03-01T00:45:32;1.00;99.90
15765;DHT22;7983;50.744;7.086;2023-03-01T00:47:58;1.00;99.90
15765;DHT22;7983;50.744;7.086;2023-03-01T00:50:24;1.00;99.90
15765;DHT22;7983;50.744;7.086;2023-03-01T00:52:54;1.00;99.90
15765;DHT22;7983;50.744;7.086;2023-03-01T00:55:20;1.00;99.90
15765;DHT22;7983;50.744;7.086;2023-03-01T00:57:46;1.00;99.90
15765;DHT22;7983;50.744;7.086;2023-03-01T01:00:12;1.00;99.90
15765;DHT22;7983;50.744;7.086;2023-03-01T01:02:40;1.00;99.90
15765;DHT22;7983;50.744;7.086;2023-03-01T01:05:08;0.90;99.90
15765;DHT22;7983;50.744;7.086;2023-03-01T01:07:39;0.90;99.90
15765;DHT22;7983;50.744;7.086;2023-03-01T01:10:05;0.90;99.90
15765;DHT22;7983;50.744;7.086;2023-03-01T01:12:33;0.90;99.90
15765;DHT22;7983;50.744;7.086;2023-03-01T01:14:59;0.90;99.90
15765;DHT22;7983;50.744;7.086;2023-03-01T01:17:25;0.90;99.90
15765;DHT22;7983;50.744;7.086;2023-03-01T01:19:50;0.80;99.90
15765;DHT22;7983;50.744;7.086;2023-03-01T01:22:18;0.90;99.90
15765;DHT22;7983;50.744;7.086;2023-03-01T01:24:46;0.80;99.90
15765;DHT22;7983;50.744;7.086;2023-03-01T01:27:14;0.80;99.90
15765;DHT22;7983;50.744;7.086;2023-03-01T01:29:44;0.80;99.90
15765;DHT22;7983;50.744;7.086;2023-03-01T01:32:14;0.80;99.90
15765;DHT22;7983;50.744;7.086;2023-03-01T01:34:40;0.70;99.90
15765;DHT22;7983;50.744;7.086;2023-03-01T01:37:08;0.70;99.90
15765;DHT22;7983;50.744;7.086;2023-03-01T01:39:36;0.70;99.90
15765;DHT22;7983;50.744;7.086;2023-03-01T01:42:01;0.70;99.90
15765;DHT22;7983;50.744;7.086;2023-03-01T01:44:29;0.70;99.90
15765;DHT22;7983;50.744;7.086;2023-03-01T01:47:05;0.70;99.90
15765;DHT22;7983;50.744;7.086;2023-03-01T01:49:38;0.70;99.90
15765;DHT22;7983;50.744;7.086;2023-03-01T01:57:16;0.60;99.90
15765;DHT22;7983;50.744;7.086;2023-03-01T01:59:45;0.60;99.90
15765;DHT22;7983;50.744;7.086;2023-03-01T02:02:13;0.60;99.90
15765;DHT22;7983;50.744;7.086;2023-03-01T02:04:39;0.60;99.90
15765;DHT22;7983;50.744;7.086;2023-03-01T02:07:16;0.50;99.90
15765;DHT22;7983;50.744;7.086;2023-03-01T02:09:46;0.50;99.90
15765;DHT22;7983;50.744;7.086;2023-03-01T02:12:17;0.50;99.90
15765;DHT22;7983;50.744;7.086;2023-03-01T02:14:43;0.40;99.90
15765;DHT22;7983;50.744;7.086;2023-03-01T02:17:11;0.40;99.90
15765;DHT22;7983;50.744;7.086;2023-03-01T02:19:52;0.30;99.90
15765;DHT22;7983;50.744;7.086;2023-03-01T02:22:24;0.30;99.90
15765;DHT22;7983;50.744;7.086;2023-03-01T02:25:03;0.30;99.90
15765;DHT22;7983;50.744;7.086;2023-03-01T02:30:35;0.30;99.90
15765;DHT22;7983;50.744;7.086;2023-03-01T02:33:03;0.30;99.90
15765;DHT22;7983;50.744;7.086;2023-03-01T02:35:33;0.30;99.90
15765;DHT22;7983;50.744;7.086;2023-03-01T02:38:03;0.30;99.90
15765;DHT22;7983;50.744;7.086;2023-03-01T02:40:33;0.20;99.90
15765;DHT22;7983;50.744;7.086;2023-03-01T02:42:59;0.20;99.90
15765;DHT22;7983;50.744;7.086;2023-03-01T02:45:26;0.20;99.90
15765;DHT22;7983;50.744;7.086;2023-03-01T02:47:56;0.20;99.90
15765;DHT22;7983;50.744;7.086;2023-03-01T02:56:03;0.10;99.90
15765;DHT22;7983;50.744;7.086;2023-03-01T02:58:31;0.10;99.90
15765;DHT22;7983;50.744;7.086;2023-03-01T03:00:56;0.10;99.90
15765;DHT22;7983;50.744;7.086;2023-03-01T03:03:22;0.00;99.90
15765;DHT22;7983;50.744;7.086;2023-03-01T03:05:48;0.00;99.90
15765;DHT22;7983;50.744;7.086;2023-03-01T03:08:14;0.00;99.90
15765;DHT22;7983;50.744;7.086;2023-03-01T03:10:49;0.00;99.90
15765;DHT22;7983;50.744;7.086;2023-03-01T03:13:17;0.00;99.90
15765;DHT22;7983;50.744;7.086;2023-03-01T03:15:43;-0.10;99.90
15765;DHT22;7983;50.744;7.086;2023-03-01T03:18:16;-0.10;99.90
15765;DHT22;7983;50.744;7.086;2023-03-01T03:20:45;-0.10;99.90
15765;DHT22;7983;50.744;7.086;2023-03-01T03:23:11;-0.10;99.90
15765;DHT22;7983;50.744;7.086;2023-03-01T03:25:37;-0.20;99.90
15765;DHT22;7983;50.744;7.086;2023-03-01T03:28:06;-0.20;99.90
15765;DHT22;7983;50.744;7.086;2023-03-01T03:30:37;-0.20;99.90
15765;DHT22;7983;50.744;7.086;2023-03-01T03:33:05;-0.30;99.90
15765;DHT22;7983;50.744;7.086;2023-03-01T03:35:34;-0.30;99.90
15765;DHT22;7983;50.744;7.086;2023-03-01T03:38:06;-0.30;99.90
15765;DHT22;7983;50.744;7.086;2023-03-01T03:40:44;-0.30;99.90
15765;DHT22;7983;50.744;7.086;2023-03-01T03:43:15;-0.40;99.90
15765;DHT22;7983;50.744;7.086;2023-03-01T03:45:46;-0.40;99.90
15765;DHT22;7983;50.744;7.086;2023-03-01T03:48:15;-0.40;99.90
15765;DHT22;7983;50.744;7.086;2023-03-01T03:50:41;-0.40;99.90
15765;DHT22;7983;50.744;7.086;2023-03-01T03:53:11;-0.40;99.90
15765;DHT22;7983;50.744;7.086;2023-03-01T03:55:42;-0.40;99.90
15765;DHT22;7983;50.744;7.086;2023-03-01T03:58:09;-0.50;99.90
15765;DHT22;7983;50.744;7.086;2023-03-01T04:00:44;-0.50;99.90
15765;DHT22;7983;50.744;7.086;2023-03-01T04:03:16;-0.50;99.90
15765;DHT22;7983;50.744;7.086;2023-03-01T04:05:47;-0.50;99.90
15765;DHT22;7983;50.744;7.086;2023-03-01T04:08:18;-0.50;99.90
15765;DHT22;7983;50.744;7.086;2023-03-01T04:10:49;-0.60;99.90
15765;DHT22;7983;50.744;7.086;2023-03-01T04:13:17;-0.60;99.90
15765;DHT22;7983;50.744;7.086;2023-03-01T04:15:48;-0.60;99.90
15765;DHT22;7983;50.744;7.086;2023-03-01T04:18:17;-0.60;99.90
15765;DHT22;7983;50.744;7.086;2023-03-01T04:20:44;-0.60;99.90
15765;DHT22;7983;50.744;7.086;2023-03-01T04:23:16;-0.60;99.90
15765;DHT22;7983;50.744;7.086;2023-03-01T04:25:58;-0.60;99.90
15765;DHT22;7983;50.744;7.086;2023-03-01T04:30:56;-0.70;99.90
15765;DHT22;7983;50.744;7.086;2023-03-01T04:33:22;-0.70;99.90
15765;DHT22;7983;50.744;7.086;2023-03-01T04:35:48;-0.70;99.90
15765;DHT22;7983;50.744;7.086;2023-03-01T04:38:18;-0.70;99.90
15765;DHT22;7983;50.744;7.086;2023-03-01T04:40:44;-0.70;99.90
15765;DHT22;7983;50.744;7.086;2023-03-01T04:43:11;-0.70;99.90
15765;DHT22;7983;50.744;7.086;2023-03-01T04:45:39;-0.70;99.90
15765;DHT22;7983;50.744;7.086;2023-03-01T04:48:05;-0.70;99.90
15765;DHT22;7983;50.744;7.086;2023-03-01T04:50:31;-0.70;99.90
15765;DHT22;7983;50.744;7.086;2023-03-01T04:52:57;-0.70;99.90
15765;DHT22;7983;50.744;7.086;2023-03-01T04:55:27;-0.70;99.90
15765;DHT22;7983;50.744;7.086;2023-03-01T04:57:53;-0.70;99.90
15765;DHT22;7983;50.744;7.086;2023-03-01T05:00:22;-0.70;99.90
15765;DHT22;7983;50.744;7.086;2023-03-01T05:02:59;-0.70;99.90
15765;DHT22;7983;50.744;7.086;2023-03-01T05:05:34;-0.70;99.90
15765;DHT22;7983;50.744;7.086;2023-03-01T05:08:05;-0.70;99.90
15765;DHT22;7983;50.744;7.086;2023-03-01T05:10:34;-0.70;99.90
15765;DHT22;7983;50.744;7.086;2023-03-01T05:13:01;-0.70;99.90
15765;DHT22;7983;50.744;7.086;2023-03-01T05:15:31;-0.70;99.90
15765;DHT22;7983;50.744;7.086;2023-03-01T05:18:01;-0.70;99.90
15765;DHT22;7983;50.744;7.086;2023-03-01T05:20:30;-0.70;99.90
15765;DHT22;7983;50.744;7.086;2023-03-01T05:22:58;-0.60;99.90
15765;DHT22;7983;50.744;7.086;2023-03-01T05:25:24;-0.70;99.90
15765;DHT22;7983;50.744;7.086;2023-03-01T05:27:51;-0.70;99.90
15765;DHT22;7983;50.744;7.086;2023-03-01T05:30:19;-0.70;99.90
15765;DHT22;7983;50.744;7.086;2023-03-01T05:32:47;-0.70;99.90
15765;DHT22;7983;50.744;7.086;2023-03-01T05:35:16;-0.70;99.90
15765;DHT22;7983;50.744;7.086;2023-03-01T05:37:43;-0.70;99.90
15765;DHT22;7983;50.744;7.086;2023-03-01T05:40:11;-0.60;99.90
15765;DHT22;7983;50.744;7.086;2023-03-01T05:42:45;-0.60;99.90
15765;DHT22;7983;50.744;7.086;2023-03-01T05:45:11;-0.60;99.90
15765;DHT22;7983;50.744;7.086;2023-03-01T05:47:41;-0.60;99.90
15765;DHT22;7983;50.744;7.086;2023-03-01T05:50:13;-0.70;99.90
15765;DHT22;7983;50.744;7.086;2023-03-01T05:52:39;-0.70;99.90
15765;DHT22;7983;50.744;7.086;2023-03-01T05:55:06;-0.80;99.90
15765;DHT22;7983;50.744;7.086;2023-03-01T05:57:31;-0.80;99.90
15765;DHT22;7983;50.744;7.086;2023-03-01T05:59:59;-0.80;99.90
15765;DHT22;7983;50.744;7.086;2023-03-01T06:02:27;-0.90;99.90
15765;DHT22;7983;50.744;7.086;2023-03-01T06:04:54;-0.90;99.90
15765;DHT22;7983;50.744;7.086;2023-03-01T06:07:20;-1.00;99.90
15765;DHT22;7983;50.744;7.086;2023-03-01T06:09:48;-1.00;99.90
15765;DHT22;7983;50.744;7.086;2023-03-01T06:12:13;-1.10;99.90
15765;DHT22;7983;50.744;7.086;2023-03-01T06:14:39;-1.10;99.90
15765;DHT22;7983;50.744;7.086;2023-03-01T06:17:05;-1.20;99.90
15765;DHT22;7983;50.744;7.086;2023-03-01T06:19:33;-1.20;99.90
15765;DHT22;7983;50.744;7.086;2023-03-01T06:22:00;-1.20;99.90
15765;DHT22;7983;50.744;7.086;2023-03-01T06:24:26;-1.20;99.90
15765;DHT22;7983;50.744;7.086;2023-03-01T06:26:54;-1.20;99.90
15765;DHT22;7983;50.744;7.086;2023-03-01T06:29:19;-1.20;99.90
15765;DHT22;7983;50.744;7.086;2023-03-01T06:31:48;-1.20;99.90
15765;DHT22;7983;50.744;7.086;2023-03-01T06:34:16;-1.20;99.90
15765;DHT22;7983;50.744;7.086;2023-03-01T06:36:41;-1.20;99.90
15765;DHT22;7983;50.744;7.086;2023-03-01T06:39:07;-1.20;99.90
15765;DHT22;7983;50.744;7.086;2023-03-01T06:41:36;-1.20;99.90
15765;DHT22;7983;50.744;7.086;2023-03-01T06:44:04;-1.20;99.90
15765;DHT22;7983;50.744;7.086;2023-03-01T06:46:29;-1.20;99.90
15765;DHT22;7983;50.744;7.086;2023-03-01T06:48:55;-1.20;99.90
15765;DHT22;7983;50.744;7.086;2023-03-01T06:51:21;-1.20;99.90
15765;DHT22;7983;50.744;7.086;2023-03-01T06:53:46;-1.20;99.90
15765;DHT22;7983;50.744;7.086;2023-03-01T06:56:12;-1.20;99.90
15765;DHT22;7983;50.744;7.086;2023-03-01T06:58:40;-1.20;99.90
15765;DHT22;7983;50.744;7.086;2023-03-01T07:01:09;-1.20;99.90
15765;DHT22;7983;50.744;7.086;2023-03-01T07:03:35;-1.20;99.90
15765;DHT22;7983;50.744;7.086;2023-03-01T07:06:00;-1.20;99.90
15765;DHT22;7983;50.744;7.086;2023-03-01T07:08:30;-1.20;99.90
15765;DHT22;7983;50.744;7.086;2023-03-01T07:11:01;-1.20;99.90
15765;DHT22;7983;50.744;7.086;2023-03-01T07:13:31;-1.10;99.90
15765;DHT22;7983;50.744;7.086;2023-03-01T07:15:57;-1.10;99.90
15765;DHT22;7983;50.744;7.086;2023-03-01T07:18:23;-1.10;99.90
15765;DHT22;7983;50.744;7.086;2023-03-01T07:20:51;-1.10;99.90
15765;DHT22;7983;50.744;7.086;2023-03-01T07:23:19;-1.00;99.90
15765;DHT22;7983;50.744;7.086;2023-03-01T07:25:49;-1.00;99.90
15765;DHT22;7983;50.744;7.086;2023-03-01T07:28:16;-1.00;99.90
15765;DHT22;7983;50.744;7.086;2023-03-01T07:30:41;-1.00;99.90
15765;DHT22;7983;50.744;7.086;2023-03-01T07:33:09;-0.90;99.90
15765;DHT22;7983;50.744;7.086;2023-03-01T07:35:35;-0.90;99.90
15765;DHT22;7983;50.744;7.086;2023-03-01T07:38:01;-0.90;99.90
15765;DHT22;7983;50.744;7.086;2023-03-01T07:40:29;-0.90;99.90
15765;DHT22;7983;50.744;7.086;2023-03-01T07:42:58;-0.80;99.90
15765;DHT22;7983;50.744;7.086;2023-03-01T07:45:24;-0.70;99.90
15765;DHT22;7983;50.744;7.086;2023-03-01T07:47:56;-0.70;99.90
15765;DHT22;7983;50.744;7.086;2023-03-01T07:50:24;-0.70;99.90
15765;DHT22;7983;50.744;7.086;2023-03-01T07:52:50;-0.60;99.90
15765;DHT22;7983;50.744;7.086;2023-03-01T07:55:16;-0.60;99.90
15765;DHT22;7983;50.744;7.086;2023-03-01T07:57:42;-0.60;99.90
15765;DHT22;7983;50.744;7.086;2023-03-01T08:00:10;-0.50;99.90
15765;DHT22;7983;50.744;7.086;2023-03-01T08:02:55;-0.50;99.90
15765;DHT22;7983;50.744;7.086;2023-03-01T08:05:23;-0.50;99.90
15765;DHT22;7983;50.744;7.086;2023-03-01T08:07:49;-0.40;99.90
15765;DHT22;7983;50.744;7.086;2023-03-01T08:10:14;-0.40;99.90
15765;DHT22;7983;50.744;7.086;2023-03-01T08:12:40;-0.30;99.90
15765;DHT22;7983;50.744;7.086;2023-03-01T08:15:06;-0.30;99.90
15765;DHT22;7983;50.744;7.086;2023-03-01T08:17:33;-0.20;99.90
15765;DHT22;7983;50.744;7.086;2023-03-01T08:19:58;-0.10;99.90
15765;DHT22;7983;50.744;7.086;2023-03-01T08:22:26;0.00;99.90
15765;DHT22;7983;50.744;7.086;2023-03-01T08:24:54;0.00;99.90
15765;DHT22;7983;50.744;7.086;2023-03-01T08:27:21;0.10;99.90
15765;DHT22;7983;50.744;7.086;2023-03-01T08:29:49;0.20;99.90
15765;DHT22;7983;50.744;7.086;2023-03-01T08:32:17;0.30;99.90
15765;DHT22;7983;50.744;7.086;2023-03-01T08:34:46;0.40;99.90
15765;DHT22;7983;50.744;7.086;2023-03-01T08:37:14;0.50;99.90
15765;DHT22;7983;50.744;7.086;2023-03-01T08:39:40;0.60;99.90
15765;DHT22;7983;50.744;7.086;2023-03-01T08:42:05;0.60;99.90
15765;DHT22;7983;50.744;7.086;2023-03-01T08:44:31;0.70;99.90
15765;DHT22;7983;50.744;7.086;2023-03-01T08:47:00;0.80;99.90
15765;DHT22;7983;50.744;7.086;2023-03-01T08:49:27;0.90;99.90
15765;DHT22;7983;50.744;7.086;2023-03-01T08:51:53;1.10;99.90
15765;DHT22;7983;50.744;7.086;2023-03-01T08:54:23;1.10;99.90
15765;DHT22;7983;50.744;7.086;2023-03-01T08:56:49;1.20;99.90
15765;DHT22;7983;50.744;7.086;2023-03-01T08:59:18;1.40;99.90
15765;DHT22;7983;50.744;7.086;2023-03-01T09:01:43;1.50;99.90
15765;DHT22;7983;50.744;7.086;2023-03-01T09:04:12;1.60;99.90
15765;DHT22;7983;50.744;7.086;2023-03-01T09:06:39;1.70;99.90
15765;DHT22;7983;50.744;7.086;2023-03-01T09:09:06;1.80;99.90
15765;DHT22;7983;50.744;7.086;2023-03-01T09:11:32;2.00;99.90
15765;DHT22;7983;50.744;7.086;2023-03-01T09:13:58;2.10;99.90
15765;DHT22;7983;50.744;7.086;2023-03-01T09:16:26;2.30;99.90
15765;DHT22;7983;50.744;7.086;2023-03-01T09:18:53;2.40;99.90
15765;DHT22;7983;50.744;7.086;2023-03-01T09:21:23;2.50;99.90
15765;DHT22;7983;50.744;7.086;2023-03-01T09:23:51;2.60;99.90
15765;DHT22;7983;50.744;7.086;2023-03-01T09:26:23;2.80;99.90
15765;DHT22;7983;50.744;7.086;2023-03-01T09:28:50;2.90;99.90
15765;DHT22;7983;50.744;7.086;2023-03-01T09:31:21;3.00;99.90
15765;DHT22;7983;50.744;7.086;2023-03-01T09:33:53;3.10;99.90
15765;DHT22;7983;50.744;7.086;2023-03-01T09:36:22;3.20;99.90
15765;DHT22;7983;50.744;7.086;2023-03-01T09:38:51;3.40;99.90
15765;DHT22;7983;50.744;7.086;2023-03-01T09:41:52;3.90;99.90
15765;DHT22;7983;50.744;7.086;2023-03-01T09:44:54;4.80;99.90
15765;DHT22;7983;50.744;7.086;2023-03-01T09:47:35;5.90;99.90
15765;DHT22;7983;50.744;7.086;2023-03-01T09:50:18;6.70;99.90
15765;DHT22;7983;50.744;7.086;2023-03-01T09:55:26;8.20;99.90
15765;DHT22;7983;50.744;7.086;2023-03-01T10:00:47;9.30;99.90
15765;DHT22;7983;50.744;7.086;2023-03-01T10:03:43;9.70;99.90
15765;DHT22;7983;50.744;7.086;2023-03-01T10:06:23;10.00;99.90
15765;DHT22;7983;50.744;7.086;2023-03-01T10:08:57;10.40;99.90
15765;DHT22;7983;50.744;7.086;2023-03-01T10:11:30;10.70;99.90
15765;DHT22;7983;50.744;7.086;2023-03-01T10:14:22;10.90;99.90
15765;DHT22;7983;50.744;7.086;2023-03-01T10:16:52;11.00;99.90
15765;DHT22;7983;50.744;7.086;2023-03-01T10:19:43;11.00;99.90
15765;DHT22;7983;50.744;7.086;2023-03-01T10:22:27;11.10;99.90
15765;DHT22;7983;50.744;7.086;2023-03-01T10:24:56;11.20;99.90
15765;DHT22;7983;50.744;7.086;2023-03-01T10:32:33;11.30;99.90
15765;DHT22;7983;50.744;7.086;2023-03-01T10:34:59;11.30;99.90
15765;DHT22;7983;50.744;7.086;2023-03-01T10:37:24;11.30;99.90
15765;DHT22;7983;50.744;7.086;2023-03-01T10:40:07;11.40;99.90
15765;DHT22;7983;50.744;7.086;2023-03-01T10:42:47;11.30;99.90
15765;DHT22;7983;50.744;7.086;2023-03-01T10:50:37;11.20;99.90
15765;DHT22;7983;50.744;7.086;2023-03-01T10:53:05;11.10;99.90
15765;DHT22;7983;50.744;7.086;2023-03-01T10:55:42;11.00;99.90
15765;DHT22;7983;50.744;7.086;2023-03-01T10:58:21;11.00;99.90
15765;DHT22;7983;50.744;7.086;2023-03-01T11:03:21;10.90;99.90
15765;DHT22;7983;50.744;7.086;2023-03-01T11:05:57;11.00;99.90
15765;DHT22;7983;50.744;7.086;2023-03-01T11:08:49;11.10;99.90
15765;DHT22;7983;50.744;7.086;2023-03-01T11:14:24;11.00;99.90
15765;DHT22;7983;50.744;7.086;2023-03-01T11:17:03;11.00;99.90
15765;DHT22;7983;50.744;7.086;2023-03-01T11:19:32;11.10;99.90
15765;DHT22;7983;50.744;7.086;2023-03-01T11:22:12;11.20;99.90
15765;DHT22;7983;50.744;7.086;2023-03-01T11:24:49;11.30;99.90
15765;DHT22;7983;50.744;7.086;2023-03-01T11:27:23;11.40;99.90
15765;DHT22;7983;50.744;7.086;2023-03-01T11:30:00;11.50;99.90
15765;DHT22;7983;50.744;7.086;2023-03-01T11:32:58;11.50;99.90
15765;DHT22;7983;50.744;7.086;2023-03-01T11:35:27;11.60;99.90
15765;DHT22;7983;50.744;7.086;2023-03-01T11:38:20;11.70;99.90
15765;DHT22;7983;50.744;7.086;2023-03-01T11:41:03;11.70;99.90
15765;DHT22;7983;50.744;7.086;2023-03-01T11:44:00;11.80;99.90
15765;DHT22;7983;50.744;7.086;2023-03-01T12:15:27;12.70;99.90
15765;DHT22;7983;50.744;7.086;2023-03-01T12:26:13;12.90;99.90
15765;DHT22;7983;50.744;7.086;2023-03-01T12:39:55;13.30;99.90
15765;DHT22;7983;50.744;7.086;2023-03-01T12:50:52;13.60;99.90
15765;DHT22;7983;50.744;7.086;2023-03-01T12:53:29;13.80;99.90
15765;DHT22;7983;50.744;7.086;2023-03-01T12:56:09;13.90;99.90
15765;DHT22;7983;50.744;7.086;2023-03-01T13:04:29;14.00;99.90
15765;DHT22;7983;50.744;7.086;2023-03-01T13:10:34;14.00;99.90
15765;DHT22;7983;50.744;7.086;2023-03-01T13:13:02;14.00;99.90
15765;DHT22;7983;50.744;7.086;2023-03-01T13:20:34;13.60;99.90
15765;DHT22;7983;50.744;7.086;2023-03-01T13:33:53;12.80;99.90
15765;DHT22;7983;50.744;7.086;2023-03-01T13:46:56;13.60;99.90
15765;DHT22;7983;50.744;7.086;2023-03-01T13:49:28;13.70;99.90
15765;DHT22;7983;50.744;7.086;2023-03-01T13:51:57;13.80;99.90
15765;DHT22;7983;50.744;7.086;2023-03-01T13:54:28;14.00;99.90
15765;DHT22;7983;50.744;7.086;2023-03-01T13:56:55;14.00;99.90
15765;DHT22;7983;50.744;7.086;2023-03-01T13:59:24;14.00;99.90
15765;DHT22;7983;50.744;7.086;2023-03-01T14:01:56;14.00;99.90
15765;DHT22;7983;50.744;7.086;2023-03-01T14:06:51;14.00;99.90
15765;DHT22;7983;50.744;7.086;2023-03-01T14:09:27;14.00;99.90
15765;DHT22;7983;50.744;7.086;2023-03-01T14:12:50;14.00;99.90
15765;DHT22;7983;50.744;7.086;2023-03-01T14:15:38;13.80;94.70
15765;DHT22;7983;50.744;7.086;2023-03-01T14:18:34;13.80;94.20
15765;DHT22;7983;50.744;7.086;2023-03-01T14:21:01;13.80;97.50
15765;DHT22;7983;50.744;7.086;2023-03-01T14:23:34;13.80;99.90
15765;DHT22;7983;50.744;7.086;2023-03-01T14:26:02;13.90;99.90
15765;DHT22;7983;50.744;7.086;2023-03-01T14:28:29;14.00;99.90
15765;DHT22;7983;50.744;7.086;2023-03-01T14:31:01;14.10;99.90
15765;DHT22;7983;50.744;7.086;2023-03-01T14:33:33;14.30;99.40
15765;DHT22;7983;50.744;7.086;2023-03-01T14:36:03;14.50;99.70
15765;DHT22;7983;50.744;7.086;2023-03-01T14:38:34;14.60;99.90
15765;DHT22;7983;50.744;7.086;2023-03-01T14:41:07;14.60;99.90
15765;DHT22;7983;50.744;7.086;2023-03-01T14:43:41;14.70;98.40
15765;DHT22;7983;50.744;7.086;2023-03-01T14:46:21;14.70;99.80
15765;DHT22;7983;50.744;7.086;2023-03-01T14:48:57;14.80;97.40
15765;DHT22;7983;50.744;7.086;2023-03-01T14:51:26;14.80;98.60
15765;DHT22;7983;50.744;7.086;2023-03-01T14:53:55;14.80;99.90
15765;DHT22;7983;50.744;7.086;2023-03-01T14:56:21;14.80;99.90
15765;DHT22;7983;50.744;7.086;2023-03-01T14:58:58;14.80;99.90
15765;DHT22;7983;50.744;7.086;2023-03-01T15:01:24;14.90;97.80
15765;DHT22;7983;50.744;7.086;2023-03-01T15:03:51;15.00;99.90
15765;DHT22;7983;50.744;7.086;2023-03-01T15:06:22;15.00;99.50
15765;DHT22;7983;50.744;7.086;2023-03-01T15:08:51;15.00;97.70
15765;DHT22;7983;50.744;7.086;2023-03-01T15:13:50;15.00;99.40
15765;DHT22;7983;50.744;7.086;2023-03-01T15:16:17;14.90;99.80
15765;DHT22;7983;50.744;7.086;2023-03-01T15:18:49;14.80;99.80
15765;DHT22;7983;50.744;7.086;2023-03-01T15:23:41;14.40;98.70
15765;DHT22;7983;50.744;7.086;2023-03-01T15:26:31;14.20;98.80
15765;DHT22;7983;50.744;7.086;2023-03-01T15:29:00;14.10;95.90
15765;DHT22;7983;50.744;7.086;2023-03-01T15:31:36;14.00;98.80
15765;DHT22;7983;50.744;7.086;2023-03-01T15:34:24;13.80;96.70
15765;DHT22;7983;50.744;7.086;2023-03-01T15:36:56;13.70;96.80
15765;DHT22;7983;50.744;7.086;2023-03-01T15:42:11;13.40;96.00
15765;DHT22;7983;50.744;7.086;2023-03-01T15:44:41;13.40;96.90
15765;DHT22;7983;50.744;7.086;2023-03-01T15:47:31;13.40;97.90
15765;DHT22;7983;50.744;7.086;2023-03-01T15:49:58;13.30;94.20
15765;DHT22;7983;50.744;7.086;2023-03-01T15:52:39;13.30;98.00
15765;DHT22;7983;50.744;7.086;2023-03-01T15:55:15;13.30;95.50
15765;DHT22;7983;50.744;7.086;2023-03-01T15:57:41;13.30;96.50
15765;DHT22;7983;50.744;7.086;2023-03-01T16:00:10;13.20;99.10
15765;DHT22;7983;50.744;7.086;2023-03-01T16:02:40;13.30;98.20
15765;DHT22;7983;50.744;7.086;2023-03-01T16:05:18;13.30;99.30
15765;DHT22;7983;50.744;7.086;2023-03-01T16:07:47;13.30;94.90
15765;DHT22;7983;50.744;7.086;2023-03-01T16:10:13;13.20;97.80
15765;DHT22;7983;50.744;7.086;2023-03-01T16:12:41;13.00;98.70
15765;DHT22;7983;50.744;7.086;2023-03-01T16:15:27;13.00;98.80
15765;DHT22;7983;50.744;7.086;2023-03-01T16:17:55;12.90;96.30
15765;DHT22;7983;50.744;7.086;2023-03-01T16:20:24;12.80;98.90
15765;DHT22;7983;50.744;7.086;2023-03-01T16:22:52;12.70;98.00
15765;DHT22;7983;50.744;7.086;2023-03-01T16:25:19;12.60;99.50
15765;DHT22;7983;50.744;7.086;2023-03-01T16:27:48;12.60;99.40
15765;DHT22;7983;50.744;7.086;2023-03-01T16:30:17;12.60;99.10
15765;DHT22;7983;50.744;7.086;2023-03-01T16:32:45;12.50;98.80
15765;DHT22;7983;50.744;7.086;2023-03-01T16:35:13;12.50;99.70
15765;DHT22;7983;50.744;7.086;2023-03-01T16:37:39;12.40;99.50
15765;DHT22;7983;50.744;7.086;2023-03-01T16:42:49;12.30;97.70
15765;DHT22;7983;50.744;7.086;2023-03-01T16:45:18;12.30;99.90
15765;DHT22;7983;50.744;7.086;2023-03-01T16:47:43;12.20;99.90
15765;DHT22;7983;50.744;7.086;2023-03-01T16:50:09;12.10;99.90
15765;DHT22;7983;50.744;7.086;2023-03-01T16:52:37;12.00;99.90
15765;DHT22;7983;50.744;7.086;2023-03-01T16:55:05;12.00;99.80
15765;DHT22;7983;50.744;7.086;2023-03-01T16:57:34;11.90;99.20
15765;DHT22;7983;50.744;7.086;2023-03-01T17:00:02;11.80;98.20
15765;DHT22;7983;50.744;7.086;2023-03-01T17:02:36;11.60;99.20
15765;DHT22;7983;50.744;7.086;2023-03-01T17:05:02;11.50;98.00
15765;DHT22;7983;50.744;7.086;2023-03-01T17:07:32;11.30;98.70
15765;DHT22;7983;50.744;7.086;2023-03-01T17:09:59;11.20;98.70
15765;DHT22;7983;50.744;7.086;2023-03-01T17:12:25;11.00;98.60
15765;DHT22;7983;50.744;7.086;2023-03-01T17:14:51;10.80;98.80
15765;DHT22;7983;50.744;7.086;2023-03-01T17:17:19;10.70;98.90
15765;DHT22;7983;50.744;7.086;2023-03-01T17:19:45;10.60;99.00
15765;DHT22;7983;50.744;7.086;2023-03-01T17:22:15;10.40;99.20
15765;DHT22;7983;50.744;7.086;2023-03-01T17:24:43;10.30;99.30
15765;DHT22;7983;50.744;7.086;2023-03-01T17:27:09;10.20;99.10
15765;DHT22;7983;50.744;7.086;2023-03-01T17:29:40;10.10;99.40
15765;DHT22;7983;50.744;7.086;2023-03-01T17:32:07;10.00;99.40
15765;DHT22;7983;50.744;7.086;2023-03-01T17:34:33;9.90;99.90
15765;DHT22;7983;50.744;7.086;2023-03-01T17:36:59;9.80;99.90
15765;DHT22;7983;50.744;7.086;2023-03-01T17:39:28;9.70;99.90
15765;DHT22;7983;50.744;7.086;2023-03-01T17:42:00;9.50;99.90
15765;DHT22;7983;50.744;7.086;2023-03-01T17:44:27;9.50;99.90
15765;DHT22;7983;50.744;7.086;2023-03-01T17:46:52;9.40;99.90
15765;DHT22;7983;50.744;7.086;2023-03-01T17:49:18;9.40;99.90
15765;DHT22;7983;50.744;7.086;2023-03-01T17:51:43;9.30;99.90
15765;DHT22;7983;50.744;7.086;2023-03-01T17:54:09;9.20;99.90
15765;DHT22;7983;50.744;7.086;2023-03-01T17:56:35;9.10;99.90
15765;DHT22;7983;50.744;7.086;2023-03-01T17:59:03;9.00;99.90
15765;DHT22;7983;50.744;7.086;2023-03-01T18:01:32;8.90;99.90
15765;DHT22;7983;50.744;7.086;2023-03-01T18:04:04;8.80;99.90
15765;DHT22;7983;50.744;7.086;2023-03-01T18:06:32;8.80;99.90
15765;DHT22;7983;50.744;7.086;2023-03-01T18:09:00;8.70;99.90
15765;DHT22;7983;50.744;7.086;2023-03-01T18:11:25;8.60;99.90
15765;DHT22;7983;50.744;7.086;2023-03-01T18:13:53;8.60;99.90
15765;DHT22;7983;50.744;7.086;2023-03-01T18:16:20;8.50;99.90
15765;DHT22;7983;50.744;7.086;2023-03-01T18:18:46;8.40;99.90
15765;DHT22;7983;50.744;7.086;2023-03-01T18:21:14;8.30;99.90
15765;DHT22;7983;50.744;7.086;2023-03-01T18:23:40;8.20;99.90
15765;DHT22;7983;50.744;7.086;2023-03-01T18:26:09;8.10;99.90
15765;DHT22;7983;50.744;7.086;2023-03-01T18:28:36;8.00;99.90
15765;DHT22;7983;50.744;7.086;2023-03-01T18:31:05;8.00;99.90
15765;DHT22;7983;50.744;7.086;2023-03-01T18:33:33;7.90;99.90